Time;durP1;ratioP1;P1;durP2;ratioP2;P2;SDS_P1;SDS_P2;PMS_P1;PMS_P2;Temp;Humidity;BMP_temperature;BMP_pressure;BME280_temperature;BME280_humidity;BME280_pressure;Samples;Min_cycle;Max_cycle;Signal;HPM_P1;HPM_P2
2022/12/27 00:01:45;;;;;;;13.43;7.70;;;;;;;;;;5130880;27;20496;-71
2022/12/27 00:04:10;;;;;;;14.52;7.57;;;;;;;;;;5130447;27;20062;-69
2022/12/27 00:06:36;;;;;;;15.38;7.40;;;;;;;;;;5134353;27;20042;-71
2022/12/27 00:09:03;;;;;;;16.35;7.40;;;;;;;;;;5134292;27;20478;-72
2022/12/27 00:11:31;;;;;;;14.15;6.85;;;;;;;;;;5134321;27;20023;-71
2022/12/27 00:14:05;;;;;;;14.57;7.30;;;;;;;;;;5134062;27;20027;-71
2022/12/27 00:16:31;;;;;;;11.75;7.28;;;;;;;;;;5136248;27;20023;-71
2022/12/27 00:18:57;;;;;;;11.05;6.70;;;;;;;;;;5137106;27;20027;-71
2022/12/27 00:21:22;;;;;;;15.07;7.30;;;;;;;;;;5135341;27;20027;-70
2022/12/27 00:23:51;;;;;;;12.30;6.90;;;;;;;;;;5133840;27;20036;-73
2022/12/27 00:26:25;;;;;;;12.88;6.40;;;;;;;;;;5133822;27;20038;-69
2022/12/27 00:28:51;;;;;;;11.00;6.63;;;;;;;;;;5134059;27;20031;-70
2022/12/27 00:31:19;;;;;;;11.80;6.47;;;;;;;;;;5133893;27;20405;-74
2022/12/27 00:33:47;;;;;;;12.38;6.70;;;;;;;;;;5133596;27;20076;-71
2022/12/27 00:36:16;;;;;;;12.40;6.25;;;;;;;;;;5133630;27;20482;-71
2022/12/27 00:38:42;;;;;;;14.05;6.55;;;;;;;;;;5133717;27;20031;-71
2022/12/27 00:41:07;;;;;;;10.98;6.50;;;;;;;;;;5133352;27;20027;-71
2022/12/27 00:43:34;;;;;;;10.15;6.25;;;;;;;;;;5133389;27;20047;-70
2022/12/27 00:45:59;;;;;;;10.48;5.88;;;;;;;;;;5133501;27;20039;-71
2022/12/27 00:48:25;;;;;;;12.52;6.15;;;;;;;;;;5132228;27;20072;-71
2022/12/27 00:50:57;;;;;;;13.95;6.78;;;;;;;;;;5133798;27;20023;-70
2022/12/27 00:53:22;;;;;;;12.70;6.60;;;;;;;;;;5133424;27;20664;-70
2022/12/27 00:55:48;;;;;;;11.25;6.35;;;;;;;;;;5134712;27;20051;-70
2022/12/27 00:58:13;;;;;;;14.60;6.95;;;;;;;;;;5137331;27;20030;-75
2022/12/27 01:00:39;;;;;;;13.35;6.85;;;;;;;;;;5143409;27;20044;-73
2022/12/27 01:03:04;;;;;;;12.30;6.22;;;;;;;;;;5143539;27;20058;-74
2022/12/27 01:05:29;;;;;;;14.15;6.85;;;;;;;;;;5133390;27;20035;-70
2022/12/27 01:07:55;;;;;;;12.50;6.35;;;;;;;;;;5134727;27;20028;-70
2022/12/27 01:10:20;;;;;;;12.55;6.18;;;;;;;;;;5135935;27;20023;-70
2022/12/27 01:12:46;;;;;;;12.15;6.45;;;;;;;;;;5132996;27;20493;-69
2022/12/27 01:15:11;;;;;;;12.02;6.30;;;;;;;;;;5132975;27;20023;-71
2022/12/27 01:17:37;;;;;;;12.95;6.65;;;;;;;;;;5132248;27;20474;-70
2022/12/27 01:20:03;;;;;;;13.90;7.18;;;;;;;;;;5135857;27;20327;-70
2022/12/27 01:22:28;;;;;;;11.13;6.32;;;;;;;;;;5134000;27;20359;-70
2022/12/27 01:24:54;;;;;;;16.48;7.80;;;;;;;;;;5132643;27;20037;-69
2022/12/27 01:27:19;;;;;;;13.88;7.75;;;;;;;;;;5132768;27;20100;-69
2022/12/27 01:29:44;;;;;;;13.13;7.22;;;;;;;;;;5133021;27;20068;-69
2022/12/27 01:32:10;;;;;;;10.65;6.47;;;;;;;;;;5132751;27;20091;-69
2022/12/27 01:34:35;;;;;;;10.40;6.00;;;;;;;;;;5132161;27;20117;-70
2022/12/27 01:37:01;;;;;;;9.88;5.80;;;;;;;;;;5132726;27;20102;-71
2022/12/27 01:39:26;;;;;;;10.57;5.65;;;;;;;;;;5132674;27;20027;-69
2022/12/27 01:44:42;;;;;;;8.30;5.18;;;;;;;;;;5132406;27;20413;-70
2022/12/27 01:47:20;;;;;;;8.82;4.88;;;;;;;;;;5132598;27;20030;-70
2022/12/27 01:50:11;;;;;;;11.48;4.82;;;;;;;;;;5132141;27;20521;-70
2022/12/27 01:52:43;;;;;;;;;;;;;;;;;;5132772;27;20076;-68
2022/12/27 01:55:30;;;;;;;7.95;4.65;;;;;;;;;;5130792;27;19907;-69
2022/12/27 01:58:02;;;;;;;8.32;4.53;;;;;;;;;;5132453;27;20057;-69
2022/12/27 02:00:27;;;;;;;7.78;4.15;;;;;;;;;;5132312;27;20019;-70
2022/12/27 02:02:53;;;;;;;8.35;4.50;;;;;;;;;;5132160;27;20034;-69
2022/12/27 02:05:21;;;;;;;7.65;4.35;;;;;;;;;;5131757;27;20023;-70
2022/12/27 02:08:00;;;;;;;9.75;4.10;;;;;;;;;;5131999;27;20074;-70
2022/12/27 02:10:27;;;;;;;8.10;3.97;;;;;;;;;;5130531;27;20076;-70
2022/12/27 02:12:53;;;;;;;8.68;4.50;;;;;;;;;;5131817;27;20059;-69
2022/12/27 02:15:18;;;;;;;8.43;4.30;;;;;;;;;;5131707;27;20046;-70
2022/12/27 02:17:43;;;;;;;11.38;4.20;;;;;;;;;;5131872;27;20467;-69
2022/12/27 02:20:16;;;;;;;8.90;4.32;;;;;;;;;;5131966;27;20102;-70
2022/12/27 02:26:05;;;;;;;7.28;3.88;;;;;;;;;;5131169;27;20041;-70
2022/12/27 02:28:53;;;;;;;8.65;3.90;;;;;;;;;;5130719;27;20421;-69
2022/12/27 02:31:24;;;;;;;7.65;4.20;;;;;;;;;;5131695;27;20069;-70
2022/12/27 02:33:51;;;;;;;9.93;3.90;;;;;;;;;;5131480;27;20011;-69
2022/12/27 02:36:22;;;;;;;6.82;3.80;;;;;;;;;;5131347;27;20038;-70
2022/12/27 02:38:52;;;;;;;8.50;3.80;;;;;;;;;;5131593;27;20532;-70
2022/12/27 02:53:10;;;;;;;6.53;3.63;;;;;;;;;;5131207;27;20119;-70
2022/12/27 02:59:10;;;;;;;5.93;3.53;;;;;;;;;;5131145;27;20042;-70
2022/12/27 03:05:07;;;;;;;7.35;3.50;;;;;;;;;;5131120;27;20090;-70
2022/12/27 03:08:21;;;;;;;7.28;3.80;;;;;;;;;;5131242;27;20023;-70
2022/12/27 03:16:54;;;;;;;7.43;3.53;;;;;;;;;;5132919;28;20123;-67
2022/12/27 03:25:28;;;;;;;6.80;3.40;;;;;;;;;;5131013;28;20387;-70
2022/12/27 03:33:49;;;;;;;7.15;3.60;;;;;;;;;;5132613;28;20617;-72
2022/12/27 03:39:10;;;;;;;7.97;3.50;;;;;;;;;;5133854;27;20085;-71
2022/12/27 03:44:26;;;;;;;8.75;4.10;;;;;;;;;;5143671;27;20525;-71
2022/12/27 03:46:57;;;;;;;9.07;3.80;;;;;;;;;;5157101;27;20401;-70
2022/12/27 03:49:44;;;;;;;6.60;3.63;;;;;;;;;;5155903;27;20030;-70
2022/12/27 03:52:16;;;;;;;6.60;3.78;;;;;;;;;;5155551;27;20539;-70
2022/12/27 03:54:44;;;;;;;9.23;4.07;;;;;;;;;;5155161;27;20402;-70
2022/12/27 03:57:17;;;;;;;7.65;3.92;;;;;;;;;;5155466;27;20351;-70
2022/12/27 03:59:43;;;;;;;6.38;3.65;;;;;;;;;;5155473;27;20037;-70
2022/12/27 04:02:09;;;;;;;6.43;3.90;;;;;;;;;;5155266;27;20101;-70
2022/12/27 04:04:35;;;;;;;6.72;3.45;;;;;;;;;;5154989;27;20466;-69
2022/12/27 04:07:00;;;;;;;6.22;3.47;;;;;;;;;;5155157;27;20026;-69
2022/12/27 04:36:46;;;;;;;7.22;3.50;;;;;;;;;;5154523;27;20121;-69
2022/12/27 04:39:12;;;;;;;7.30;3.60;;;;;;;;;;5154724;27;20067;-69
2022/12/27 04:55:27;;;;;;;6.18;3.25;;;;;;;;;;5154631;27;20098;-69
2022/12/27 04:57:53;;;;;;;6.53;2.90;;;;;;;;;;5155081;27;20065;-69
2022/12/27 05:03:11;;;;;;;10.50;3.33;;;;;;;;;;5154611;27;20033;-70
2022/12/27 05:05:37;;;;;;;6.05;2.88;;;;;;;;;;5153636;27;20031;-69
2022/12/27 05:16:16;;;;;;;4.35;2.50;;;;;;;;;;5153497;27;20102;-70
2022/12/27 05:18:42;;;;;;;4.15;2.63;;;;;;;;;;5153663;27;20486;-70
2022/12/27 05:21:07;;;;;;;5.00;2.40;;;;;;;;;;5153791;27;20018;-69
2022/12/27 05:26:19;;;;;;;3.45;2.30;;;;;;;;;;5153330;27;20460;-69
2022/12/27 05:28:45;;;;;;;6.25;2.28;;;;;;;;;;5153536;27;20026;-73
2022/12/27 05:31:11;;;;;;;3.13;2.00;;;;;;;;;;5152320;27;20048;-70
2022/12/27 05:33:36;;;;;;;4.38;2.08;;;;;;;;;;5153416;27;20023;-70
2022/12/27 05:36:02;;;;;;;4.35;1.90;;;;;;;;;;5153201;27;20044;-72
2022/12/27 05:38:27;;;;;;;3.40;1.77;;;;;;;;;;5153239;27;20053;-71
2022/12/27 05:40:58;;;;;;;4.10;1.90;;;;;;;;;;5153261;27;20078;-70
2022/12/27 05:43:23;;;;;;;3.60;2.00;;;;;;;;;;5153049;27;20421;-70
2022/12/27 05:45:48;;;;;;;3.80;2.05;;;;;;;;;;5153038;27;20482;-70
2022/12/27 05:48:14;;;;;;;3.10;1.90;;;;;;;;;;5151742;27;20031;-71
2022/12/27 05:50:39;;;;;;;4.63;2.17;;;;;;;;;;5153024;27;20060;-70
2022/12/27 05:53:05;;;;;;;3.50;2.00;;;;;;;;;;5153252;27;20599;-71
2022/12/27 05:55:30;;;;;;;4.28;2.00;;;;;;;;;;5151349;27;20022;-71
2022/12/27 05:57:55;;;;;;;4.63;1.85;;;;;;;;;;5152983;27;20512;-71
2022/12/27 06:00:21;;;;;;;3.72;1.92;;;;;;;;;;5153554;27;20033;-70
2022/12/27 06:02:46;;;;;;;5.13;1.95;;;;;;;;;;5152345;27;20023;-72
2022/12/27 06:05:12;;;;;;;4.88;2.10;;;;;;;;;;5152685;27;20049;-72
2022/12/27 06:07:38;;;;;;;3.17;1.90;;;;;;;;;;5151424;27;20029;-73
2022/12/27 06:10:05;;;;;;;2.88;1.95;;;;;;;;;;5152782;27;20018;-72
2022/12/27 06:12:31;;;;;;;5.00;1.95;;;;;;;;;;5152965;27;20031;-73
2022/12/27 06:14:56;;;;;;;3.97;2.25;;;;;;;;;;5152631;27;20082;-72
2022/12/27 06:17:21;;;;;;;4.82;2.25;;;;;;;;;;5152279;27;20454;-71
2022/12/27 06:19:47;;;;;;;4.53;2.13;;;;;;;;;;5152431;27;20033;-72
2022/12/27 06:22:12;;;;;;;5.03;2.08;;;;;;;;;;5152585;27;20033;-71
2022/12/27 06:24:38;;;;;;;3.83;2.17;;;;;;;;;;5152445;27;20038;-71
2022/12/27 06:27:03;;;;;;;3.38;1.80;;;;;;;;;;5152439;27;20599;-71
2022/12/27 06:29:28;;;;;;;3.90;2.10;;;;;;;;;;5152261;27;20123;-71
2022/12/27 06:31:54;;;;;;;3.85;2.10;;;;;;;;;;5152370;27;20026;-71
2022/12/27 06:34:19;;;;;;;2.58;1.80;;;;;;;;;;5152164;27;20053;-71
2022/12/27 06:36:49;;;;;;;3.00;1.90;;;;;;;;;;5133463;27;20019;-71
2022/12/27 06:39:16;;;;;;;7.30;2.10;;;;;;;;;;5152103;27;20033;-71
2022/12/27 06:41:41;;;;;;;3.45;2.10;;;;;;;;;;5152328;27;20034;-71
2022/12/27 06:44:06;;;;;;;3.30;2.08;;;;;;;;;;5152277;27;20043;-71
2022/12/27 06:46:32;;;;;;;3.25;2.15;;;;;;;;;;5151842;27;20398;-71
2022/12/27 06:48:57;;;;;;;3.38;1.98;;;;;;;;;;5151743;27;20170;-71
2022/12/27 06:51:22;;;;;;;4.18;2.10;;;;;;;;;;5151921;27;20031;-72
2022/12/27 06:53:49;;;;;;;4.10;1.88;;;;;;;;;;5150762;27;20025;-72
2022/12/27 06:56:17;;;;;;;4.68;1.92;;;;;;;;;;5150329;27;20031;-71
2022/12/27 06:58:43;;;;;;;3.88;1.98;;;;;;;;;;5152072;27;20033;-72
2022/12/27 07:01:17;;;;;;;6.15;2.75;;;;;;;;;;5150794;27;20026;-72
2022/12/27 07:03:46;;;;;;;4.95;2.78;;;;;;;;;;5151960;27;20019;-72
2022/12/27 07:06:12;;;;;;;5.75;3.03;;;;;;;;;;5151785;27;20596;-69
2022/12/27 07:08:37;;;;;;;6.47;3.00;;;;;;;;;;5151878;27;20019;-69
2022/12/27 07:11:05;;;;;;;5.10;2.90;;;;;;;;;;5151923;27;20022;-69
2022/12/27 07:13:42;;;;;;;5.03;2.95;;;;;;;;;;5152110;27;20023;-71
2022/12/27 07:16:10;;;;;;;4.22;2.50;;;;;;;;;;5156626;27;20034;-70
2022/12/27 07:18:36;;;;;;;4.65;2.60;;;;;;;;;;5162985;27;20057;-69
2022/12/27 07:21:06;;;;;;;4.35;2.47;;;;;;;;;;5167629;27;20031;-70
2022/12/27 07:23:32;;;;;;;15.87;8.67;;;;;;;;;;5161297;27;20062;-70
2022/12/27 07:26:02;;;;;;;13.43;7.50;;;;;;;;;;5156713;27;20321;-70
2022/12/27 07:28:28;;;;;;;15.02;8.82;;;;;;;;;;5156347;27;20030;-70
2022/12/27 07:30:53;;;;;;;8.50;5.25;;;;;;;;;;5155703;27;20039;-69
2022/12/27 07:33:18;;;;;;;5.65;3.25;;;;;;;;;;5155459;27;20118;-69
2022/12/27 07:35:45;;;;;;;5.38;2.90;;;;;;;;;;5155984;27;20022;-73
2022/12/27 07:38:10;;;;;;;5.70;2.63;;;;;;;;;;5155566;27;20046;-69
2022/12/27 07:40:36;;;;;;;5.90;2.70;;;;;;;;;;5155857;27;20466;-70
2022/12/27 07:43:01;;;;;;;5.05;3.05;;;;;;;;;;5154200;27;20042;-69
2022/12/27 07:45:27;;;;;;;5.57;2.97;;;;;;;;;;5155402;27;20484;-70
2022/12/27 07:47:52;;;;;;;6.90;4.55;;;;;;;;;;5155463;27;20026;-73
2022/12/27 07:50:18;;;;;;;7.00;4.07;;;;;;;;;;5155323;27;20019;-70
2022/12/27 07:52:44;;;;;;;5.40;3.38;;;;;;;;;;5155561;27;20019;-76
2022/12/27 07:55:09;;;;;;;6.18;3.80;;;;;;;;;;5154225;27;20398;-77
2022/12/27 07:57:34;;;;;;;5.00;3.42;;;;;;;;;;5153685;27;20030;-76
2022/12/27 08:00:00;;;;;;;5.07;3.08;;;;;;;;;;5155324;27;20023;-73
2022/12/27 08:02:25;;;;;;;5.90;3.40;;;;;;;;;;5155425;27;20038;-75
2022/12/27 08:04:51;;;;;;;6.00;3.03;;;;;;;;;;5155175;27;20462;-76
2022/12/27 08:07:18;;;;;;;4.95;2.85;;;;;;;;;;5153661;27;20026;-76
2022/12/27 08:09:46;;;;;;;5.15;3.20;;;;;;;;;;5155316;27;20027;-76
2022/12/27 08:12:14;;;;;;;5.82;3.13;;;;;;;;;;5155132;27;20030;-73
2022/12/27 08:14:40;;;;;;;7.40;3.13;;;;;;;;;;5153563;27;20370;-77
2022/12/27 08:17:21;;;;;;;5.32;2.75;;;;;;;;;;5154952;27;20447;-86
2022/12/27 08:19:47;;;;;;;4.68;2.83;;;;;;;;;;5153565;27;20023;-75
2022/12/27 08:22:12;;;;;;;5.38;3.25;;;;;;;;;;5154736;27;20035;-74
2022/12/27 08:24:40;;;;;;;5.35;3.25;;;;;;;;;;5154607;27;20023;-74
2022/12/27 08:27:06;;;;;;;5.50;3.03;;;;;;;;;;5154515;27;20022;-73
2022/12/27 08:29:31;;;;;;;8.27;4.43;;;;;;;;;;5154858;27;20071;-74
2022/12/27 08:31:57;;;;;;;5.63;3.80;;;;;;;;;;5154583;27;20029;-75
2022/12/27 08:34:22;;;;;;;8.10;4.38;;;;;;;;;;5153477;27;20394;-73
2022/12/27 08:36:50;;;;;;;5.32;3.83;;;;;;;;;;5153654;27;20022;-72
2022/12/27 08:39:16;;;;;;;8.00;4.18;;;;;;;;;;5154515;27;20019;-73
2022/12/27 08:41:41;;;;;;;6.45;3.47;;;;;;;;;;5154496;27;20397;-73
2022/12/27 08:44:08;;;;;;;7.88;3.80;;;;;;;;;;5154493;27;20091;-72
2022/12/27 08:46:34;;;;;;;6.85;3.58;;;;;;;;;;5154467;27;20030;-72
2022/12/27 08:48:59;;;;;;;6.00;3.17;;;;;;;;;;5154277;27;20045;-73
2022/12/27 08:51:25;;;;;;;6.85;3.40;;;;;;;;;;5153214;27;20079;-73
2022/12/27 08:53:50;;;;;;;5.13;3.25;;;;;;;;;;5154377;27;20026;-74
2022/12/27 08:56:15;;;;;;;5.40;3.00;;;;;;;;;;5154724;27;20031;-73
2022/12/27 08:58:41;;;;;;;7.30;3.00;;;;;;;;;;5154101;27;20397;-73
2022/12/27 09:01:08;;;;;;;5.53;3.20;;;;;;;;;;5154438;27;20061;-74
2022/12/27 09:03:33;;;;;;;6.25;3.08;;;;;;;;;;5153406;27;20034;-75
2022/12/27 09:06:11;;;;;;;4.60;2.17;;;;;;;;;;5155043;27;20071;-75
2022/12/27 09:08:36;;;;;;;3.42;1.95;;;;;;;;;;5153995;27;20538;-79
2022/12/27 09:11:15;;;;;;;4.97;2.05;;;;;;;;;;5154238;27;20023;-76
2022/12/27 09:13:41;;;;;;;5.50;2.08;;;;;;;;;;5152759;27;20031;-83
2022/12/27 09:16:15;;;;;;;4.13;2.40;;;;;;;;;;5151484;27;20082;-80
2022/12/27 09:18:42;;;;;;;4.57;2.22;;;;;;;;;;5153830;27;20034;-79
2022/12/27 09:21:10;;;;;;;3.65;2.03;;;;;;;;;;5154188;27;20026;-77
2022/12/27 09:23:37;;;;;;;4.25;2.42;;;;;;;;;;5152579;27;20023;-73
2022/12/27 09:26:04;;;;;;;5.22;2.20;;;;;;;;;;5151725;27;20042;-75
2022/12/27 09:28:29;;;;;;;3.65;1.90;;;;;;;;;;5152817;27;20054;-75
2022/12/27 09:30:55;;;;;;;4.10;2.33;;;;;;;;;;5153432;27;20392;-73
2022/12/27 09:33:20;;;;;;;4.53;2.03;;;;;;;;;;5152923;27;20029;-72
2022/12/27 09:35:45;;;;;;;3.75;2.00;;;;;;;;;;5154228;27;20029;-71
2022/12/27 09:38:11;;;;;;;4.10;2.03;;;;;;;;;;5154033;27;20022;-78
2022/12/27 09:40:36;;;;;;;5.22;2.70;;;;;;;;;;5153275;27;20275;-74
2022/12/27 09:43:08;;;;;;;6.70;2.90;;;;;;;;;;5152814;27;20494;-75
2022/12/27 09:45:42;;;;;;;5.50;2.20;;;;;;;;;;5152990;27;20023;-74
2022/12/27 09:48:16;;;;;;;4.10;2.05;;;;;;;;;;5152632;27;20033;-75
2022/12/27 09:50:51;;;;;;;5.18;2.30;;;;;;;;;;5151614;27;20355;-72
2022/12/27 09:53:44;;;;;;;3.75;1.98;;;;;;;;;;5143738;27;20387;-77
2022/12/27 09:56:22;;;;;;;4.30;2.10;;;;;;;;;;5151578;27;20023;-76
2022/12/27 09:58:58;;;;;;;4.20;2.03;;;;;;;;;;5152722;27;20022;-80
2022/12/27 10:01:33;;;;;;;3.90;2.00;;;;;;;;;;5152938;27;20106;-74
2022/12/27 10:03:59;;;;;;;3.40;1.95;;;;;;;;;;5152713;27;20042;-75
2022/12/27 10:06:57;;;;;;;4.68;2.30;;;;;;;;;;5152232;27;20026;-73
2022/12/27 10:09:38;;;;;;;5.03;2.25;;;;;;;;;;5148408;27;20478;-74
2022/12/27 10:12:30;;;;;;;5.07;2.47;;;;;;;;;;5152560;27;20025;-72
2022/12/27 10:15:23;;;;;;;3.92;2.20;;;;;;;;;;5152796;27;20026;-73
2022/12/27 10:18:03;;;;;;;4.55;2.38;;;;;;;;;;5151638;27;20105;-72
2022/12/27 10:20:51;;;;;;;5.30;2.75;;;;;;;;;;5150381;27;20031;-71
2022/12/27 10:23:21;;;;;;;3.95;2.53;;;;;;;;;;5154577;27;20027;-83
2022/12/27 10:25:52;;;;;;;5.32;2.70;;;;;;;;;;5151625;27;20030;-73
2022/12/27 10:28:27;;;;;;;;;;;;;;;;;;5152451;27;20500;-71
2022/12/27 10:30:53;;;;;;;3.70;2.30;;;;;;;;;;5152541;27;19911;-83
2022/12/27 10:33:25;;;;;;;5.45;2.78;;;;;;;;;;5154362;27;20027;-70
2022/12/27 10:35:51;;;;;;;5.65;2.67;;;;;;;;;;5152378;27;20630;-73
2022/12/27 10:38:18;;;;;;;4.80;2.50;;;;;;;;;;5151730;27;20018;-71
2022/12/27 10:40:58;;;;;;;5.00;2.67;;;;;;;;;;5152220;27;20026;-70
2022/12/27 10:43:32;;;;;;;5.28;2.53;;;;;;;;;;5159240;27;20047;-70
2022/12/27 10:46:11;;;;;;;4.32;2.38;;;;;;;;;;5159959;27;20039;-75
2022/12/27 10:48:36;;;;;;;3.42;2.20;;;;;;;;;;5151930;27;20035;-77
2022/12/27 10:51:08;;;;;;;5.20;2.30;;;;;;;;;;5151918;27;20393;-75
2022/12/27 10:53:47;;;;;;;5.82;2.60;;;;;;;;;;5154611;27;20399;-74
2022/12/27 10:56:15;;;;;;;4.05;2.47;;;;;;;;;;5154946;27;20491;-74
2022/12/27 10:58:46;;;;;;;7.13;3.50;;;;;;;;;;5158009;27;19998;-77
2022/12/27 11:01:26;;;;;;;4.80;3.30;;;;;;;;;;5155981;27;20030;-75
2022/12/27 11:04:22;;;;;;;5.90;2.70;;;;;;;;;;5169377;27;20102;-76
2022/12/27 11:06:51;;;;;;;5.60;2.97;;;;;;;;;;5169450;27;20031;-78
2022/12/27 11:09:30;;;;;;;5.88;2.67;;;;;;;;;;5150523;27;20035;-81
2022/12/27 11:12:14;;;;;;;4.90;2.47;;;;;;;;;;5150476;27;20084;-76
2022/12/27 11:14:52;;;;;;;6.28;2.90;;;;;;;;;;5149799;27;20057;-72
2022/12/27 11:17:20;;;;;;;4.85;2.67;;;;;;;;;;5150060;27;20019;-76
2022/12/27 11:19:47;;;;;;;7.57;2.58;;;;;;;;;;5151273;27;20615;-79
2022/12/27 11:22:12;;;;;;;5.03;2.65;;;;;;;;;;5151918;27;20083;-77
2022/12/27 11:24:47;;;;;;;6.50;3.00;;;;;;;;;;5151783;27;20026;-79
2022/12/27 11:27:29;;;;;;;6.18;2.70;;;;;;;;;;5152048;27;20026;-86
2022/12/27 11:29:57;;;;;;;5.43;2.70;;;;;;;;;;5151584;27;20030;-80
2022/12/27 11:32:23;;;;;;;4.15;2.72;;;;;;;;;;5153827;27;20071;-75
2022/12/27 11:34:52;;;;;;;6.15;3.05;;;;;;;;;;5151368;27;20114;-81
2022/12/27 11:37:20;;;;;;;4.60;2.60;;;;;;;;;;5151511;27;20023;-79
2022/12/27 11:40:23;;;;;;;4.35;2.30;;;;;;;;;;5154090;27;20656;-74
2022/12/27 11:42:55;;;;;;;4.70;2.53;;;;;;;;;;5157433;27;20089;-78
2022/12/27 11:45:27;;;;;;;4.38;2.80;;;;;;;;;;5154536;27;20038;-71
2022/12/27 11:48:21;;;;;;;3.58;2.80;;;;;;;;;;5149808;27;20019;-74
2022/12/27 11:51:02;;;;;;;4.82;2.70;;;;;;;;;;5143461;27;20129;-75
2022/12/27 11:53:46;;;;;;;4.70;2.67;;;;;;;;;;5151720;27;20067;-76
2022/12/27 11:56:21;;;;;;;3.78;2.50;;;;;;;;;;5151842;27;20015;-81
2022/12/27 11:59:11;;;;;;;5.50;2.90;;;;;;;;;;5151190;27;20115;-71
2022/12/27 12:01:39;;;;;;;8.60;3.70;;;;;;;;;;5154068;27;20042;-75
2022/12/27 12:04:42;;;;;;;5.05;2.95;;;;;;;;;;5155190;27;20033;-73
2022/12/27 12:07:30;;;;;;;4.45;2.70;;;;;;;;;;5155147;27;20031;-72
2022/12/27 12:10:10;;;;;;;6.30;3.03;;;;;;;;;;5154772;27;20524;-74
2022/12/27 12:12:54;;;;;;;5.18;3.28;;;;;;;;;;5155282;27;20384;-79
2022/12/27 12:15:44;;;;;;;4.68;3.00;;;;;;;;;;5157182;27;20027;-69
2022/12/27 12:18:24;;;;;;;;;;;;;;;;;;5155049;27;20078;-71
2022/12/27 12:21:12;;;;;;;5.47;3.60;;;;;;;;;;5155112;27;20290;-72
2022/12/27 12:23:58;;;;;;;6.78;3.88;;;;;;;;;;5154600;27;20026;-74
2022/12/27 12:26:50;;;;;;;5.53;3.05;;;;;;;;;;5154726;27;20482;-76
2022/12/27 12:29:27;;;;;;;4.70;2.80;;;;;;;;;;5132520;27;20107;-71
2022/12/27 12:32:17;;;;;;;4.15;2.65;;;;;;;;;;5131834;27;20046;-72
2022/12/27 12:35:04;;;;;;;5.03;3.10;;;;;;;;;;5133783;27;20027;-73
2022/12/27 12:37:44;;;;;;;4.72;2.80;;;;;;;;;;5133711;27;20027;-72
2022/12/27 12:40:27;;;;;;;7.05;2.95;;;;;;;;;;5133554;27;20035;-71
2022/12/27 12:43:29;;;;;;;4.82;3.20;;;;;;;;;;5138255;27;20046;-72
2022/12/27 12:46:17;;;;;;;5.53;3.13;;;;;;;;;;5133628;27;20539;-71
2022/12/27 12:48:43;;;;;;;6.05;2.97;;;;;;;;;;5133203;27;20059;-72
2022/12/27 12:51:29;;;;;;;6.03;3.40;;;;;;;;;;5133591;27;20065;-70
2022/12/27 12:54:19;;;;;;;5.03;3.58;;;;;;;;;;5133703;27;20034;-72
2022/12/27 12:57:02;;;;;;;7.32;3.67;;;;;;;;;;5133164;27;20627;-85
2022/12/27 12:59:40;;;;;;;5.75;3.30;;;;;;;;;;5132964;27;20031;-71
2022/12/27 13:02:34;;;;;;;5.47;3.53;;;;;;;;;;5132896;27;20023;-71
2022/12/27 13:05:30;;;;;;;5.25;3.40;;;;;;;;;;5133061;27;20363;-74
2022/12/27 13:08:01;;;;;;;6.90;3.25;;;;;;;;;;5133256;27;20061;-72
2022/12/27 13:11:00;;;;;;;5.47;3.22;;;;;;;;;;5133016;27;20015;-71
2022/12/27 13:13:35;;;;;;;5.65;3.40;;;;;;;;;;5132183;27;20027;-74
2022/12/27 13:16:22;;;;;;;4.97;3.10;;;;;;;;;;5133022;27;20084;-73
2022/12/27 13:19:04;;;;;;;6.63;2.80;;;;;;;;;;5132616;27;20147;-72
2022/12/27 13:22:03;;;;;;;5.30;3.13;;;;;;;;;;5133076;27;20019;-73
2022/12/27 13:25:11;;;;;;;6.55;2.65;;;;;;;;;;5131802;27;20059;-74
2022/12/27 13:28:15;;;;;;;4.65;2.50;;;;;;;;;;5124258;27;20039;-75
2022/12/27 13:31:01;;;;;;;6.72;3.05;;;;;;;;;;5109780;27;20035;-71
2022/12/27 13:33:35;;;;;;;6.30;3.03;;;;;;;;;;5132683;27;20080;-76
2022/12/27 13:36:17;;;;;;;9.50;3.92;;;;;;;;;;5132933;27;20019;-79
2022/12/27 13:39:14;;;;;;;8.20;3.40;;;;;;;;;;5131201;27;20087;-72
2022/12/27 13:41:42;;;;;;;8.68;3.10;;;;;;;;;;5132682;27;20066;-75
2022/12/27 13:44:20;;;;;;;4.97;3.17;;;;;;;;;;5132399;27;20047;-73
2022/12/27 13:47:41;;;;;;;4.65;2.90;;;;;;;;;;5132417;27;20038;-78
2022/12/27 13:50:18;;;;;;;;;;;;;;;;;;5068707;28;20081;-77
2022/12/27 13:53:12;;;;;;;6.55;3.33;;;;;;;;;;5124764;27;19919;-72
2022/12/27 13:55:53;;;;;;;8.10;3.53;;;;;;;;;;5132887;27;20046;-72
2022/12/27 13:58:37;;;;;;;7.00;3.30;;;;;;;;;;5132243;27;20027;-73
2022/12/27 14:01:05;;;;;;;5.32;3.00;;;;;;;;;;5132178;27;20452;-72
2022/12/27 14:03:55;;;;;;;6.18;3.60;;;;;;;;;;5131513;27;20033;-75
2022/12/27 14:06:20;;;;;;;6.68;3.55;;;;;;;;;;5132445;27;20063;-73
2022/12/27 14:08:56;;;;;;;5.63;3.42;;;;;;;;;;5131816;27;20081;-76
2022/12/27 14:11:43;;;;;;;4.47;2.80;;;;;;;;;;5133483;27;20023;-77
2022/12/27 14:14:13;;;;;;;4.95;2.85;;;;;;;;;;5167885;27;20019;-75
2022/12/27 14:17:13;;;;;;;5.30;2.95;;;;;;;;;;5163968;27;20188;-75
2022/12/27 14:19:38;;;;;;;5.90;3.20;;;;;;;;;;5141906;27;20030;-75
2022/12/27 14:22:14;;;;;;;4.97;2.88;;;;;;;;;;5153866;27;20478;-76
2022/12/27 14:25:09;;;;;;;5.65;3.03;;;;;;;;;;5152241;27;20018;-73
2022/12/27 14:27:40;;;;;;;4.63;3.15;;;;;;;;;;5152664;27;20027;-69
2022/12/27 14:30:47;;;;;;;6.53;3.40;;;;;;;;;;5151717;27;20018;-71
2022/12/27 14:33:31;;;;;;;5.93;3.13;;;;;;;;;;5084877;28;20024;-74
2022/12/27 14:36:17;;;;;;;5.53;3.42;;;;;;;;;;5141775;27;20053;-75
2022/12/27 14:39:13;;;;;;;6.50;3.47;;;;;;;;;;5152015;27;20093;-66
2022/12/27 14:42:08;;;;;;;5.22;3.17;;;;;;;;;;5139925;27;20110;-77
2022/12/27 14:45:21;;;;;;;3.97;2.90;;;;;;;;;;5152018;27;20046;-72
2022/12/27 14:48:24;;;;;;;8.07;3.28;;;;;;;;;;5067615;28;20166;-72
2022/12/27 14:51:20;;;;;;;5.65;2.78;;;;;;;;;;5151649;27;20023;-68
2022/12/27 14:54:01;;;;;;;7.38;3.00;;;;;;;;;;5159267;27;20043;-77
2022/12/27 14:56:32;;;;;;;4.68;2.90;;;;;;;;;;5160057;27;20057;-73
2022/12/27 14:59:23;;;;;;;5.30;3.08;;;;;;;;;;5158991;27;20326;-74
2022/12/27 15:01:55;;;;;;;4.68;3.10;;;;;;;;;;5160065;27;20030;-75
2022/12/27 15:04:29;;;;;;;5.63;3.15;;;;;;;;;;5161184;27;20058;-73
2022/12/27 15:07:21;;;;;;;7.07;3.40;;;;;;;;;;5162467;27;20039;-74
2022/12/27 15:10:01;;;;;;;5.32;3.28;;;;;;;;;;5156896;27;20078;-72
2022/12/27 15:12:35;;;;;;;7.13;3.10;;;;;;;;;;5162039;27;20053;-69
2022/12/27 15:15:04;;;;;;;5.43;3.10;;;;;;;;;;5152062;27;20027;-68
2022/12/27 15:17:48;;;;;;;4.30;2.95;;;;;;;;;;5151995;27;20023;-76
2022/12/27 15:20:23;;;;;;;5.88;3.90;;;;;;;;;;5151596;27;20027;-75
2022/12/27 15:23:12;;;;;;;5.50;3.30;;;;;;;;;;5151749;27;20069;-71
2022/12/27 15:26:03;;;;;;;5.82;3.22;;;;;;;;;;5151876;27;20033;-77
2022/12/27 15:28:47;;;;;;;;;;;;;;;;;;5152245;27;20023;-76
2022/12/27 15:31:18;;;;;;;4.22;2.80;;;;;;;;;;5151770;27;20062;-76
2022/12/27 15:34:01;;;;;;;5.10;3.10;;;;;;;;;;5151749;27;20037;-75
2022/12/27 15:36:43;;;;;;;8.77;3.65;;;;;;;;;;5152751;27;20071;-73
2022/12/27 15:39:33;;;;;;;7.20;3.90;;;;;;;;;;5155705;27;20026;-72
2022/12/27 15:42:04;;;;;;;6.00;3.57;;;;;;;;;;5155755;27;20607;-72
2022/12/27 15:45:02;;;;;;;5.15;3.60;;;;;;;;;;5155645;27;20288;-73
2022/12/27 15:47:39;;;;;;;6.35;3.47;;;;;;;;;;5155907;27;20621;-73
2022/12/27 15:50:07;;;;;;;6.45;3.60;;;;;;;;;;5154216;27;20525;-75
2022/12/27 15:52:45;;;;;;;6.22;3.45;;;;;;;;;;5155806;27;20037;-70
2022/12/27 15:55:18;;;;;;;5.00;3.70;;;;;;;;;;5154143;27;20093;-69
2022/12/27 15:58:13;;;;;;;7.63;3.83;;;;;;;;;;5155144;27;20554;-75
2022/12/27 16:00:40;;;;;;;6.85;3.63;;;;;;;;;;5155175;27;20598;-74
2022/12/27 16:03:35;;;;;;;4.60;3.03;;;;;;;;;;5155402;27;20034;-72
2022/12/27 16:06:02;;;;;;;6.97;3.78;;;;;;;;;;5155505;27;20114;-73
2022/12/27 16:08:36;;;;;;;6.18;3.80;;;;;;;;;;5156066;27;20030;-69
2022/12/27 16:11:04;;;;;;;8.25;4.00;;;;;;;;;;5155077;27;20050;-70
2022/12/27 16:13:40;;;;;;;5.57;3.60;;;;;;;;;;5155288;27;20035;-69
2022/12/27 16:16:09;;;;;;;6.70;3.60;;;;;;;;;;5153715;27;20027;-72
2022/12/27 16:18:53;;;;;;;7.28;3.83;;;;;;;;;;5155005;27;20042;-72
2022/12/27 16:21:19;;;;;;;6.85;3.80;;;;;;;;;;5154944;27;20521;-69
2022/12/27 16:23:44;;;;;;;5.75;3.42;;;;;;;;;;5155312;27;20106;-68
2022/12/27 16:26:15;;;;;;;7.43;4.10;;;;;;;;;;5155170;27;20058;-68
2022/12/27 16:28:50;;;;;;;8.63;4.57;;;;;;;;;;5154955;27;20049;-69
2022/12/27 16:31:20;;;;;;;8.55;4.72;;;;;;;;;;5154615;27;20478;-69
2022/12/27 16:33:45;;;;;;;17.50;9.20;;;;;;;;;;5154807;27;20023;-70
2022/12/27 16:36:11;;;;;;;12.45;6.97;;;;;;;;;;5154897;27;20030;-74
2022/12/27 16:38:49;;;;;;;7.03;4.00;;;;;;;;;;5154775;27;20127;-70
2022/12/27 16:41:23;;;;;;;11.15;5.82;;;;;;;;;;5154878;27;20632;-69
2022/12/27 16:44:09;;;;;;;11.70;6.22;;;;;;;;;;5154551;27;20403;-70
2022/12/27 16:46:58;;;;;;;15.98;7.10;;;;;;;;;;5153979;27;20111;-69
2022/12/27 16:49:39;;;;;;;8.88;4.95;;;;;;;;;;5154170;27;20049;-69
2022/12/27 16:52:16;;;;;;;6.80;4.40;;;;;;;;;;5154461;27;20114;-69
2022/12/27 16:54:53;;;;;;;9.95;5.07;;;;;;;;;;5154550;27;20057;-70
2022/12/27 16:57:25;;;;;;;6.75;4.50;;;;;;;;;;5154458;27;20067;-70
2022/12/27 17:00:09;;;;;;;9.98;6.10;;;;;;;;;;5154194;27;20023;-69
2022/12/27 17:02:45;;;;;;;23.38;12.88;;;;;;;;;;5153019;27;20474;-68
2022/12/27 17:05:13;;;;;;;18.20;9.88;;;;;;;;;;5153991;27;20054;-68